createdAt,value
2017-05-18T00:01:50.292Z,4.78
2017-05-18T00:04:17.592Z,4.10
2017-05-18T00:06:44.846Z,4.74
2017-05-18T00:09:12.019Z,4.48
2017-05-18T00:11:40.064Z,4.44
2017-05-18T00:14:07.235Z,4.36
2017-05-18T00:16:34.447Z,4.20
2017-05-18T00:19:01.616Z,4.30
2017-05-18T00:21:29.005Z,4.70
2017-05-18T00:23:56.156Z,4.30
2017-05-18T00:26:23.580Z,4.68
2017-05-18T00:28:50.821Z,4.78
2017-05-18T00:31:18.000Z,5.68
2017-05-18T00:33:45.937Z,5.40
2017-05-18T00:36:13.109Z,5.20
2017-05-18T00:38:41.062Z,5.98
2017-05-18T00:41:08.214Z,5.82
2017-05-18T00:43:35.415Z,5.66
2017-05-18T00:46:02.581Z,5.80
2017-05-18T00:48:29.791Z,6.12
2017-05-18T00:50:57.839Z,6.48
2017-05-18T00:53:24.996Z,6.10
2017-05-18T00:55:52.903Z,5.78
2017-05-18T00:58:20.061Z,5.88
2017-05-18T01:00:47.244Z,5.88
2017-05-18T01:03:14.448Z,6.20
2017-05-18T01:05:41.568Z,6.26
2017-05-18T01:08:09.486Z,6.32
2017-05-18T01:10:36.720Z,5.78
2017-05-18T01:13:03.855Z,6.02
2017-05-18T01:15:31.007Z,6.14
2017-05-18T01:17:58.221Z,6.36
2017-05-18T01:20:25.360Z,5.28
2017-05-18T01:22:52.528Z,5.66
2017-05-18T01:25:20.560Z,6.04
2017-05-18T01:27:47.747Z,5.66
2017-05-18T01:30:15.907Z,5.26
2017-05-18T01:32:43.051Z,6.50
2017-05-18T01:35:10.193Z,5.82
2017-05-18T01:37:37.388Z,5.72
2017-05-18T01:40:04.611Z,6.12
2017-05-18T01:42:31.775Z,5.62
2017-05-18T01:44:59.706Z,5.08
2017-05-18T01:47:26.923Z,6.00
2017-05-18T01:49:54.048Z,6.22
2017-05-18T01:52:21.335Z,5.58
2017-05-18T01:54:48.561Z,5.90
2017-05-18T01:57:15.772Z,6.12
2017-05-18T01:59:42.992Z,5.20
2017-05-18T02:02:10.188Z,5.32
2017-05-18T02:04:38.089Z,5.50
2017-05-18T02:07:05.330Z,5.64
2017-05-18T02:09:32.532Z,6.16
2017-05-18T02:11:59.660Z,6.12
2017-05-18T02:14:26.851Z,5.36
2017-05-18T02:16:54.706Z,6.12
2017-05-18T02:19:21.902Z,6.18
2017-05-18T02:21:49.268Z,6.48
2017-05-18T02:24:16.470Z,7.72
2017-05-18T02:26:44.376Z,7.72
2017-05-18T02:29:11.567Z,7.70
2017-05-18T02:31:38.689Z,8.02
2017-05-18T02:34:05.955Z,9.04
2017-05-18T02:36:33.123Z,8.58
2017-05-18T02:39:00.251Z,6.86
2017-05-18T02:41:27.421Z,9.00
2017-05-18T02:43:54.572Z,6.18
2017-05-18T02:46:21.780Z,5.92
2017-05-18T02:48:49.028Z,8.60
2017-05-18T02:51:16.170Z,5.72
2017-05-18T02:53:43.292Z,6.68
2017-05-18T02:56:11.251Z,6.50
2017-05-18T02:58:39.218Z,7.06
2017-05-18T03:01:06.502Z,6.06
2017-05-18T03:03:33.681Z,6.08
2017-05-18T03:06:00.832Z,5.98
2017-05-18T03:08:28.032Z,5.58
2017-05-18T03:10:56.000Z,5.54
2017-05-18T03:13:24.050Z,5.90
2017-05-18T03:15:51.986Z,7.32
2017-05-18T03:18:19.992Z,7.20
2017-05-18T03:20:47.164Z,6.20
2017-05-18T03:23:14.359Z,6.32
2017-05-18T03:25:41.659Z,6.00
2017-05-18T03:28:09.559Z,6.60
2017-05-18T03:30:36.749Z,6.26
2017-05-18T03:33:03.915Z,6.94
2017-05-18T03:35:31.818Z,7.30
2017-05-18T03:38:06.074Z,8.42
2017-05-18T03:40:33.336Z,8.84
2017-05-18T03:43:00.481Z,9.36
2017-05-18T03:45:27.648Z,9.46
2017-05-18T03:47:55.732Z,9.78
2017-05-18T03:50:23.670Z,10.18
2017-05-18T03:52:50.888Z,9.52
2017-05-18T03:55:18.098Z,9.48
2017-05-18T03:57:46.055Z,10.94
2017-05-18T04:00:13.967Z,9.32
2017-05-18T04:02:41.117Z,9.80
2017-05-18T04:05:08.335Z,9.70
2017-05-18T04:07:36.253Z,10.08
2017-05-18T04:10:03.480Z,8.68
2017-05-18T04:12:30.884Z,8.98
2017-05-18T04:14:58.038Z,8.72
2017-05-18T04:17:25.178Z,8.82
2017-05-18T04:19:52.363Z,8.56
2017-05-18T04:22:19.544Z,8.56
2017-05-18T04:24:46.740Z,9.08
2017-05-18T04:27:14.671Z,8.06
2017-05-18T04:29:41.895Z,8.36
2017-05-18T04:32:09.118Z,8.60
2017-05-18T04:34:36.993Z,7.90
2017-05-18T04:37:04.184Z,8.04
2017-05-18T04:39:31.396Z,8.48
2017-05-18T04:41:58.542Z,8.74
2017-05-18T04:44:26.604Z,8.94
2017-05-18T04:46:54.543Z,8.46
2017-05-18T04:49:21.771Z,7.48
2017-05-18T04:51:48.989Z,8.70
2017-05-18T04:54:16.151Z,7.76
2017-05-18T04:56:43.369Z,7.92
2017-05-18T04:59:11.315Z,8.42
2017-05-18T05:01:38.542Z,7.78
2017-05-18T05:04:05.776Z,7.76
2017-05-18T05:06:32.942Z,7.32
2017-05-18T05:09:00.176Z,7.42
2017-05-18T05:11:27.380Z,6.70
2017-05-18T05:13:54.537Z,6.60
2017-05-18T05:16:22.512Z,8.30
2017-05-18T05:18:50.424Z,8.46
2017-05-18T05:21:17.679Z,9.10
2017-05-18T05:23:44.832Z,8.38
2017-05-18T05:26:11.985Z,8.66
2017-05-18T05:28:39.219Z,8.96
2017-05-18T05:31:06.352Z,8.70
2017-05-18T05:33:33.580Z,7.86
2017-05-18T05:36:01.521Z,8.14
2017-05-18T05:38:28.687Z,7.22
2017-05-18T05:40:55.965Z,6.62
2017-05-18T05:43:23.169Z,7.50
2017-05-18T05:45:50.311Z,9.00
2017-05-18T05:48:17.630Z,9.22
2017-05-18T05:50:44.870Z,9.92
2017-05-18T05:53:11.984Z,10.76
2017-05-18T05:55:39.152Z,10.74
2017-05-18T05:58:07.120Z,10.82
2017-05-18T06:00:35.055Z,10.74
2017-05-18T06:03:02.198Z,10.40
2017-05-18T06:05:29.596Z,10.10
2017-05-18T06:07:57.520Z,9.86
2017-05-18T06:10:24.664Z,9.94
2017-05-18T06:12:51.874Z,8.96
2017-05-18T06:15:19.216Z,8.40
2017-05-18T06:17:47.133Z,7.78
2017-05-18T06:20:14.307Z,7.52
2017-05-18T06:22:41.443Z,6.88
2017-05-18T06:25:08.636Z,6.38
2017-05-18T06:27:35.835Z,6.80
2017-05-18T06:30:03.040Z,6.72
2017-05-18T06:32:30.273Z,6.70
2017-05-18T06:34:58.177Z,7.00
2017-05-18T06:37:25.338Z,6.52
2017-05-18T06:39:52.536Z,4.60
2017-05-18T06:42:20.404Z,4.24
2017-05-18T06:44:48.297Z,4.26
2017-05-18T06:47:15.657Z,4.60
2017-05-18T06:49:42.813Z,3.78
2017-05-18T06:52:09.980Z,4.10
2017-05-18T06:54:37.165Z,3.50
2017-05-18T06:57:04.317Z,4.08
2017-05-18T06:59:31.485Z,3.62
2017-05-18T07:01:59.444Z,4.00
2017-05-18T07:04:27.426Z,3.88
2017-05-18T07:06:54.542Z,3.80
2017-05-18T07:09:21.721Z,3.98
2017-05-18T07:11:48.895Z,3.58
2017-05-18T07:14:16.053Z,3.90
2017-05-18T07:16:43.328Z,4.14
2017-05-18T07:19:10.522Z,4.26
2017-05-18T07:21:37.755Z,3.64
2017-05-18T07:24:05.813Z,3.18
2017-05-18T07:26:32.956Z,3.62
2017-05-18T07:29:00.151Z,4.12
2017-05-18T07:31:27.315Z,3.72
2017-05-18T07:33:54.513Z,3.26
2017-05-18T07:36:21.784Z,3.38
2017-05-18T07:38:49.699Z,3.76
2017-05-18T07:41:16.891Z,3.66
2017-05-18T07:43:44.844Z,3.80
2017-05-18T07:46:12.003Z,4.16
2017-05-18T07:48:39.152Z,4.02
2017-05-18T07:51:06.361Z,3.74
2017-05-18T07:53:33.575Z,3.16
2017-05-18T07:56:01.507Z,3.70
2017-05-18T07:58:28.699Z,3.40
2017-05-18T08:00:55.869Z,3.38
2017-05-18T08:03:23.094Z,4.28
2017-05-18T08:05:50.266Z,3.98
2017-05-18T08:08:17.424Z,3.20
2017-05-18T08:10:44.599Z,3.58
2017-05-18T08:13:11.863Z,4.10
2017-05-18T08:15:39.049Z,4.34
2017-05-18T08:18:06.251Z,3.54
2017-05-18T08:20:33.428Z,3.94
2017-05-18T08:23:01.411Z,4.48
2017-05-18T08:25:28.674Z,3.72
2017-05-18T08:27:55.969Z,3.98
2017-05-18T08:30:23.123Z,4.04
2017-05-18T08:32:50.320Z,5.28
2017-05-18T08:35:17.491Z,4.00
2017-05-18T08:37:44.661Z,4.76
2017-05-18T08:40:11.890Z,4.52
2017-05-18T08:42:39.072Z,3.90
2017-05-18T08:45:06.284Z,3.76
2017-05-18T08:47:33.468Z,3.46
2017-05-18T08:50:00.725Z,4.28
2017-05-18T08:52:27.920Z,4.86
2017-05-18T08:54:55.069Z,4.26
2017-05-18T08:57:22.257Z,4.74
2017-05-18T08:59:49.569Z,4.72
2017-05-18T09:02:16.729Z,4.88
2017-05-18T09:04:43.859Z,4.34
2017-05-18T09:07:11.855Z,5.02
2017-05-18T09:09:39.032Z,4.76
2017-05-18T09:12:06.224Z,4.32
2017-05-18T09:14:34.154Z,4.86
2017-05-18T09:17:01.369Z,4.22
2017-05-18T09:19:28.579Z,4.36
2017-05-18T09:21:55.829Z,3.60
2017-05-18T09:24:23.090Z,4.92
2017-05-18T09:26:51.178Z,3.96
2017-05-18T09:29:18.371Z,4.30
2017-05-18T09:31:45.501Z,4.94
2017-05-18T09:34:12.705Z,4.42
2017-05-18T09:36:40.602Z,4.48
2017-05-18T09:39:07.801Z,4.94
2017-05-18T09:41:34.955Z,4.70
2017-05-18T09:44:02.083Z,4.62
2017-05-18T09:46:29.433Z,5.14
2017-05-18T09:48:56.641Z,4.62
2017-05-18T09:51:24.592Z,4.56
2017-05-18T09:53:51.733Z,4.58
2017-05-18T09:56:18.869Z,4.20
2017-05-18T09:58:46.075Z,4.22
2017-05-18T10:01:13.416Z,4.82
2017-05-18T10:03:41.446Z,4.16
2017-05-18T10:06:08.680Z,5.50
2017-05-18T10:08:35.835Z,5.24
2017-05-18T10:11:03.113Z,4.98
2017-05-18T10:13:30.324Z,5.12
2017-05-18T10:15:57.550Z,5.26
2017-05-18T10:18:24.830Z,5.06
2017-05-18T10:20:52.022Z,5.50
2017-05-18T10:23:19.585Z,4.96
2017-05-18T10:25:46.869Z,4.84
2017-05-18T10:28:14.095Z,5.70
2017-05-18T10:30:41.546Z,4.88
2017-05-18T10:33:08.812Z,5.48
2017-05-18T10:35:36.005Z,5.64
2017-05-18T10:38:03.253Z,5.52
2017-05-18T10:40:30.537Z,4.74
2017-05-18T10:42:57.766Z,5.20
2017-05-18T10:45:24.961Z,5.52
2017-05-18T10:47:52.186Z,5.60
2017-05-18T10:50:19.364Z,4.90
2017-05-18T10:52:46.592Z,5.26
2017-05-18T10:55:13.816Z,4.64
2017-05-18T10:57:40.974Z,5.38
2017-05-18T11:00:08.294Z,5.08
2017-05-18T11:02:35.488Z,6.32
2017-05-18T11:05:02.679Z,5.38
2017-05-18T11:07:29.923Z,5.82
2017-05-18T11:09:57.128Z,5.80
2017-05-18T11:12:24.326Z,6.00
2017-05-18T11:14:51.577Z,6.72
2017-05-18T11:17:18.741Z,5.88
2017-05-18T11:19:46.002Z,5.68
2017-05-18T11:22:13.235Z,5.20
2017-05-18T11:24:40.393Z,5.36
2017-05-18T11:27:07.622Z,4.52
2017-05-18T11:29:34.797Z,4.82
2017-05-18T11:32:02.099Z,3.54
2017-05-18T11:34:29.326Z,3.70
2017-05-18T11:36:56.558Z,4.12
2017-05-18T11:39:23.848Z,3.80
2017-05-18T11:41:51.189Z,3.90
2017-05-18T11:44:18.354Z,3.60
2017-05-18T11:46:45.641Z,4.78
2017-05-18T11:49:12.855Z,3.84
2017-05-18T11:51:40.123Z,3.56
2017-05-18T11:54:07.467Z,3.70
2017-05-18T11:56:34.715Z,4.48
2017-05-18T11:59:01.964Z,3.72
2017-05-18T12:01:29.250Z,3.74
2017-05-18T12:03:56.482Z,3.84
2017-05-18T12:06:23.974Z,3.60
2017-05-18T12:08:51.636Z,3.18
2017-05-18T12:11:18.969Z,3.16
2017-05-18T12:13:46.243Z,2.92
2017-05-18T12:16:13.504Z,3.14
2017-05-18T12:18:40.799Z,3.14
2017-05-18T12:21:08.021Z,2.90
2017-05-18T12:23:35.362Z,2.74
2017-05-18T12:26:02.526Z,2.82
2017-05-18T12:28:29.739Z,2.84
2017-05-18T12:30:57.002Z,2.74
2017-05-18T12:33:24.332Z,2.66
2017-05-18T12:35:51.619Z,2.32
2017-05-18T12:38:18.853Z,2.56
2017-05-18T12:40:46.034Z,2.72
2017-05-18T12:43:13.220Z,2.62
2017-05-18T12:45:40.416Z,2.20
2017-05-18T12:48:07.754Z,2.96
2017-05-18T12:50:34.943Z,2.30
2017-05-18T12:53:02.152Z,2.68
2017-05-18T12:55:29.388Z,2.70
2017-05-18T12:57:56.593Z,2.38
2017-05-18T13:00:23.898Z,2.80
2017-05-18T13:02:51.197Z,2.80
2017-05-18T13:05:18.425Z,2.96
2017-05-18T13:07:45.792Z,2.90
2017-05-18T13:10:13.157Z,3.06
2017-05-18T13:12:40.343Z,2.60
2017-05-18T13:15:07.629Z,2.40
2017-05-18T13:17:34.877Z,3.10
2017-05-18T13:20:02.161Z,3.18
2017-05-18T13:22:29.409Z,3.22
2017-05-18T13:24:56.776Z,2.80
2017-05-18T13:27:23.927Z,2.62
2017-05-18T13:29:51.092Z,2.98
2017-05-18T13:32:18.298Z,2.68
2017-05-18T13:34:45.513Z,2.60
2017-05-18T13:37:12.726Z,2.50
2017-05-18T13:39:39.923Z,2.76
2017-05-18T13:42:07.188Z,3.22
2017-05-18T13:44:34.405Z,2.94
2017-05-18T13:47:01.728Z,2.94
2017-05-18T13:49:28.884Z,3.34
2017-05-18T13:51:56.142Z,2.96
2017-05-18T13:54:23.304Z,2.94
2017-05-18T13:56:50.447Z,2.62
2017-05-18T13:59:17.837Z,2.64
2017-05-18T14:01:45.057Z,3.12
2017-05-18T14:04:12.315Z,3.14
2017-05-18T14:06:39.549Z,3.00
2017-05-18T14:09:06.752Z,2.46
2017-05-18T14:11:33.959Z,2.92
2017-05-18T14:14:01.212Z,3.10
2017-05-18T14:16:28.408Z,2.88
2017-05-18T14:18:55.645Z,2.60
2017-05-18T14:21:22.836Z,2.78
2017-05-18T14:23:50.089Z,2.74
2017-05-18T14:26:17.304Z,2.56
2017-05-18T14:28:44.516Z,2.86
2017-05-18T14:31:11.720Z,2.60
2017-05-18T14:33:38.880Z,2.78
2017-05-18T14:36:06.148Z,2.48
2017-05-18T14:38:33.352Z,2.90
2017-05-18T14:41:00.538Z,2.34
2017-05-18T14:43:27.779Z,2.46
2017-05-18T14:45:55.125Z,2.76
2017-05-18T14:48:22.350Z,2.50
2017-05-18T14:50:49.628Z,2.44
2017-05-18T14:53:16.820Z,2.40
2017-05-18T14:55:44.058Z,2.50
2017-05-18T14:58:11.369Z,2.42
2017-05-18T15:00:38.570Z,2.60
2017-05-18T15:03:05.732Z,2.80
2017-05-18T15:05:32.988Z,2.42
2017-05-18T15:08:00.227Z,2.28
2017-05-18T15:10:27.414Z,3.10
2017-05-18T15:12:54.759Z,3.60
2017-05-18T15:15:21.987Z,3.06
2017-05-18T15:17:49.283Z,3.20
2017-05-18T15:20:16.508Z,3.44
2017-05-18T15:22:43.712Z,2.96
2017-05-18T15:25:11.010Z,2.90
2017-05-18T15:27:38.223Z,9.92
2017-05-18T15:30:05.420Z,4.30
2017-05-18T15:32:32.706Z,3.86
2017-05-18T15:34:59.854Z,3.30
2017-05-18T15:37:27.159Z,3.36
2017-05-18T15:39:54.366Z,3.00
2017-05-18T15:42:21.555Z,3.22
2017-05-18T15:44:48.769Z,3.50
2017-05-18T15:47:15.975Z,3.52
2017-05-18T15:49:43.192Z,2.96
2017-05-18T15:52:10.409Z,3.00
2017-05-18T15:54:37.628Z,3.02
2017-05-18T15:57:04.897Z,3.24
2017-05-18T15:59:32.133Z,3.14
2017-05-18T16:01:59.508Z,2.64
2017-05-18T16:04:26.705Z,2.98
2017-05-18T16:06:53.961Z,3.28
2017-05-18T16:09:21.224Z,4.58
2017-05-18T16:11:48.432Z,3.86
2017-05-18T16:14:15.683Z,3.56
2017-05-18T16:16:43.047Z,3.80
2017-05-18T16:19:10.188Z,3.66
2017-05-18T16:21:37.455Z,3.40
2017-05-18T16:24:04.665Z,3.94
2017-05-18T16:26:31.868Z,4.06
2017-05-18T16:28:59.061Z,3.62
2017-05-18T16:31:26.301Z,4.00
2017-05-18T16:33:53.493Z,3.86
2017-05-18T16:36:20.724Z,3.98
2017-05-18T16:38:47.927Z,4.00
2017-05-18T16:41:15.119Z,3.68
2017-05-18T16:43:42.309Z,3.58
2017-05-18T16:46:09.525Z,3.70
2017-05-18T16:48:36.730Z,3.60
2017-05-18T16:51:03.956Z,3.52
2017-05-18T16:53:31.270Z,3.48
2017-05-18T16:55:58.522Z,3.38
2017-05-18T16:58:25.756Z,3.42
2017-05-18T17:00:52.920Z,3.86
2017-05-18T17:03:20.089Z,3.58
2017-05-18T17:05:47.481Z,4.48
2017-05-18T17:08:14.732Z,3.96
2017-05-18T17:10:41.971Z,4.26
2017-05-18T17:13:09.315Z,4.14
2017-05-18T17:15:36.462Z,4.32
2017-05-18T17:18:03.778Z,4.10
2017-05-18T17:20:31.181Z,4.24
2017-05-18T17:22:58.405Z,4.00
2017-05-18T17:25:25.672Z,3.86
2017-05-18T17:27:53.041Z,4.40
2017-05-18T17:30:20.213Z,4.44
2017-05-18T17:32:47.557Z,3.70
2017-05-18T17:35:14.839Z,4.34
2017-05-18T17:37:42.043Z,4.50
2017-05-18T17:40:09.376Z,4.48
2017-05-18T17:42:36.647Z,4.20
2017-05-18T17:45:04.109Z,4.52
2017-05-18T17:47:31.354Z,4.88
2017-05-18T17:49:58.615Z,5.56
2017-05-18T17:52:25.900Z,5.42
2017-05-18T17:54:53.189Z,5.80
2017-05-18T17:57:20.449Z,5.48
2017-05-18T17:59:47.697Z,5.10
2017-05-18T18:02:14.922Z,5.12
2017-05-18T18:04:42.160Z,6.14
2017-05-18T18:07:09.473Z,6.70
2017-05-18T18:09:36.711Z,5.14
2017-05-18T18:12:03.996Z,6.02
2017-05-18T18:14:31.256Z,5.52
2017-05-18T18:16:58.468Z,5.70
2017-05-18T18:19:25.644Z,5.74
2017-05-18T18:21:53.011Z,5.60
2017-05-18T18:24:20.287Z,5.24
2017-05-18T18:26:47.500Z,5.86
2017-05-18T18:29:14.818Z,6.14
2017-05-18T18:31:42.040Z,6.16
2017-05-18T18:34:09.220Z,5.40
2017-05-18T18:36:36.499Z,6.12
2017-05-18T18:39:03.893Z,6.12
2017-05-18T18:41:31.154Z,6.02
2017-05-18T18:43:58.345Z,6.34
2017-05-18T18:46:25.640Z,5.34
2017-05-18T18:48:52.873Z,5.72
2017-05-18T18:51:20.222Z,5.78
2017-05-18T18:53:47.466Z,7.14
2017-05-18T18:56:14.656Z,6.28
2017-05-18T18:58:41.862Z,6.74
2017-05-18T19:01:09.170Z,6.10
2017-05-18T19:03:36.453Z,5.80
2017-05-18T19:06:03.691Z,6.78
2017-05-18T19:08:30.934Z,6.08
2017-05-18T19:10:58.384Z,6.28
2017-05-18T19:13:25.730Z,5.30
2017-05-18T19:15:52.977Z,5.00
2017-05-18T19:18:20.184Z,5.72
2017-05-18T19:20:47.426Z,5.74
2017-05-18T19:23:14.657Z,5.04
2017-05-18T19:25:41.933Z,4.78
2017-05-18T19:28:09.149Z,5.30
2017-05-18T19:30:36.434Z,5.40
2017-05-18T19:33:03.722Z,5.04
2017-05-18T19:35:31.063Z,4.60
2017-05-18T19:37:58.343Z,4.90
2017-05-18T19:40:25.601Z,6.06
2017-05-18T19:42:52.809Z,5.82
2017-05-18T19:45:20.076Z,6.82
2017-05-18T19:47:47.368Z,5.82
2017-05-18T19:50:14.791Z,6.42
2017-05-18T19:52:42.014Z,7.36
2017-05-18T19:58:00.056Z,7.00
2017-05-18T20:00:27.411Z,6.56
2017-05-18T20:02:54.801Z,5.74
2017-05-18T20:05:22.168Z,6.56
2017-05-18T20:10:39.977Z,7.28
2017-05-18T20:13:07.247Z,6.72
2017-05-18T20:15:34.893Z,6.26
2017-05-18T20:18:03.417Z,7.84
2017-05-18T20:20:30.698Z,7.16
2017-05-18T20:22:58.092Z,7.58
2017-05-18T20:25:25.465Z,9.34
2017-05-18T20:27:52.727Z,8.44
2017-05-18T20:30:20.103Z,8.96
2017-05-18T20:32:47.453Z,7.96
2017-05-18T20:35:14.772Z,8.28
2017-05-18T20:37:42.519Z,8.54
2017-05-18T20:40:09.811Z,8.50
2017-05-18T20:42:37.195Z,8.96
2017-05-18T20:45:04.534Z,7.74
2017-05-18T20:47:31.823Z,8.62
2017-05-18T20:49:59.105Z,8.32
2017-05-18T20:52:26.321Z,8.00
2017-05-18T20:54:53.581Z,7.70
2017-05-18T20:57:21.497Z,7.74
2017-05-18T20:59:48.733Z,8.42
2017-05-18T21:02:15.992Z,7.96
2017-05-18T21:04:43.268Z,6.98
2017-05-18T21:07:10.594Z,7.66
2017-05-18T21:09:37.840Z,5.48
2017-05-18T21:12:05.116Z,5.80
2017-05-18T21:14:32.389Z,5.04
2017-05-18T21:16:59.822Z,5.06
2017-05-18T21:19:27.069Z,5.12
2017-05-18T21:21:54.356Z,5.52
2017-05-18T21:24:21.683Z,5.02
2017-05-18T21:26:48.863Z,4.80
2017-05-18T21:29:16.045Z,4.70
2017-05-18T21:31:43.242Z,5.54
2017-05-18T21:34:10.437Z,4.92
2017-05-18T21:36:37.769Z,5.68
2017-05-18T21:39:04.976Z,5.08
2017-05-18T21:41:32.175Z,5.44
2017-05-18T21:43:59.403Z,5.48
2017-05-18T21:46:26.575Z,5.00
2017-05-18T21:48:53.854Z,5.34
2017-05-18T21:51:20.999Z,5.08
2017-05-18T21:53:49.067Z,5.90
2017-05-18T21:56:16.225Z,6.30
2017-05-18T21:58:43.412Z,6.36
2017-05-18T22:01:09.940Z,6.86
2017-05-18T22:03:37.135Z,6.86
2017-05-18T22:06:04.338Z,6.38
2017-05-18T22:08:31.553Z,6.16
2017-05-18T22:10:58.780Z,6.90
2017-05-18T22:13:26.002Z,7.38
2017-05-18T22:15:53.184Z,8.02
2017-05-18T22:18:20.468Z,7.82
2017-05-18T22:20:47.658Z,9.28
2017-05-18T22:23:14.855Z,8.74
2017-05-18T22:25:42.095Z,9.40
2017-05-18T22:28:09.227Z,9.28
2017-05-18T22:30:36.455Z,8.16
2017-05-18T22:33:03.812Z,8.62
2017-05-18T22:35:31.016Z,8.02
2017-05-18T22:37:58.253Z,6.74
2017-05-18T22:40:25.476Z,7.28
2017-05-18T22:42:52.671Z,7.10
2017-05-18T22:45:19.876Z,6.82
2017-05-18T22:47:47.079Z,6.42
2017-05-18T22:50:14.344Z,8.04
2017-05-18T22:52:41.536Z,7.60
2017-05-18T22:55:08.768Z,8.10
2017-05-18T22:57:35.969Z,7.62
2017-05-18T23:00:03.300Z,7.58
2017-05-18T23:02:30.488Z,7.58
2017-05-18T23:04:57.691Z,9.00
2017-05-18T23:07:24.886Z,8.02
2017-05-18T23:09:52.145Z,7.28
2017-05-18T23:12:19.296Z,8.44
2017-05-18T23:14:46.616Z,7.94
2017-05-18T23:17:14.491Z,8.20
2017-05-18T23:19:42.384Z,8.42
2017-05-18T23:22:09.648Z,9.68
2017-05-18T23:24:36.798Z,8.44
2017-05-18T23:27:03.912Z,8.64
2017-05-18T23:29:31.081Z,7.40
2017-05-18T23:31:58.259Z,7.88
2017-05-18T23:34:25.460Z,7.76
2017-05-18T23:36:52.748Z,7.96
2017-05-18T23:39:19.966Z,8.82
2017-05-18T23:41:47.155Z,8.38
2017-05-18T23:44:14.355Z,8.80
2017-05-18T23:46:42.255Z,8.12
2017-05-18T23:49:09.422Z,8.88
2017-05-18T23:51:36.624Z,8.64
2017-05-18T23:54:04.559Z,8.60
2017-05-18T23:56:31.789Z,8.02
2017-05-18T23:58:59.019Z,8.20
